EDT,Max TemperatureF,Mean TemperatureF,Min TemperatureF,Max Dew PointF,MeanDew PointF,Min DewpointF,Max Humidity, Mean Humidity, Min Humidity, Max Sea Level PressureIn, Mean Sea Level PressureIn, Min Sea Level PressureIn, Max VisibilityMiles, Mean VisibilityMiles, Min VisibilityMiles, Max Wind SpeedMPH, Mean Wind SpeedMPH, Max Gust SpeedMPH,PrecipitationIn, CloudCover, Events, WindDirDegrees
2013-7-1,74,70,66,65,62,59,81,77,73,29.93,29.88,29.83,10,9,2,17,10,22,0.16,7,Rain-Thunderstorm,39
2013-7-2,82,74,65,67,64,62,93,76,58,30.00,29.95,29.91,10,7,2,14,5,81,0.10,6,Rain-Thunderstorm,83
2013-7-3,82,73,63,66,64,60,93,74,55,30.09,30.05,29.99,10,8,3,15,7,24,0.00,1,,182
2013-7-4,78,72,65,70,66,62,93,81,69,30.13,30.10,30.05,10,6,0,14,3,20,T,2,Fog,129
2013-7-5,82,75,67,69,66,64,90,74,58,30.13,30.09,30.05,10,7,0,10,4,16,0.00,5,Fog,153
2013-7-6,75,71,67,69,67,64,90,82,73,30.11,30.08,30.02,10,8,1,23,5,24,0.21,6,Rain,217
2013-7-7,84,75,65,70,66,63,93,76,58,30.11,30.06,30.01,10,6,2,13,5,21,T,5,Rain,184
2013-7-8,87,78,69,73,70,66,90,76,61,30.10,30.06,30.01,10,9,4,17,8,21,T,1,,205
2013-7-9,90,83,75,76,73,71,87,73,59,30.05,30.01,29.95,10,10,7,16,8,21,T,3,Rain,214
2013-7-10,88,80,72,76,72,67,88,78,67,29.96,29.91,29.83,10,9,6,23,7,30,T,4,Rain-Thunderstorm,224
2013-7-11,81,71,61,70,60,56,84,65,45,30.02,29.99,29.93,10,10,10,18,8,23,0.00,3,,16
2013-7-12,82,70,58,61,58,55,93,68,43,30.10,30.06,30.03,10,10,7,14,6,33,0.00,1,,35
2013-7-13,85,74,62,66,62,59,90,71,51,30.12,30.08,30.05,10,10,7,15,8,20,0.00,1,,66
2013-7-14,90,79,67,74,70,64,93,75,56,30.22,30.15,30.11,10,9,2,14,5,22,0.36,2,Rain-Thunderstorm,106
2013-7-15,90,82,73,74,71,68,93,73,52,30.28,30.24,30.19,10,9,4,15,5,18,0.00,1,Rain,156
2013-7-16,94,83,71,75,71,68,90,70,49,30.32,30.28,30.25,10,10,9,5,1,,0.00,1,,67
2013-7-17,94,83,72,75,72,70,93,71,49,30.26,30.21,30.17,10,9,4,7,3,10,0.00,1,,6
2013-7-18,93,82,71,75,72,69,93,71,49,30.19,30.11,30.01,10,9,5,9,2,18,0.00,0,,197
2013-7-19,91,83,74,75,73,70,94,75,55,30.02,29.95,29.86,10,7,2,21,9,26,0.04,1,Rain,216
2013-7-20,87,78,69,73,69,64,90,78,65,29.91,29.88,29.84,10,9,4,18,6,23,0.02,3,Rain-Thunderstorm,230
2013-7-21,85,76,66,74,69,64,93,79,65,29.97,29.92,29.86,10,7,0,7,1,22,0.00,2,Fog,192
2013-7-22,83,77,71,72,70,68,93,79,65,29.87,29.82,29.76,10,7,2,16,4,22,0.12,6,Rain,188
2013-7-23,90,78,66,75,69,58,90,70,50,29.85,29.78,29.72,10,9,5,21,9,24,0.00,1,,253
2013-7-24,77,67,57,58,55,53,86,68,49,30.00,29.94,29.86,10,10,10,32,9,70,0.00,1,,11
2013-7-25,80,67,53,60,54,51,93,66,39,30.09,30.05,30.01,10,10,7,12,4,15,0.00,0,,58
2013-7-26,81,68,55,63,58,51,87,68,48,30.07,30.02,29.94,10,10,6,13,5,20,T,1,Rain,197
2013-7-27,78,69,60,64,61,51,87,67,47,29.94,29.89,29.84,10,7,2,18,10,24,0.34,6,Rain,224
2013-7-28,74,63,51,55,51,48,89,67,44,30.04,29.98,29.93,10,10,10,18,8,24,0.00,3,,238
2013-7-29,79,66,52,57,54,49,89,66,43,30.17,30.12,30.04,10,10,10,15,4,26,0.00,2,,266
2013-7-30,76,66,55,66,60,52,87,73,58,30.19,30.15,30.09,10,10,10,12,4,36,T,3,,143
2013-7-31,77,72,67,70,66,62,90,80,69,30.09,30.01,29.93,10,9,7,12,6,,T,8,Rain,192